createdAt,value
2022-11-07T00:00:26.553Z,91.62
2022-11-07T00:03:29.039Z,91.82
2022-11-07T00:06:32.178Z,91.04
2022-11-07T00:09:34.985Z,92.71
2022-11-07T00:12:37.486Z,92.54
2022-11-07T00:15:41.330Z,92.59
2022-11-07T00:18:43.815Z,93.75
2022-11-07T00:21:46.473Z,93.42
2022-11-07T00:24:48.966Z,92.74
2022-11-07T00:27:51.468Z,92.82
2022-11-07T00:30:55.292Z,92.47
2022-11-07T00:33:58.471Z,94.14
2022-11-07T00:37:00.985Z,93.87
2022-11-07T00:40:03.706Z,94.86
2022-11-07T00:43:06.201Z,94.60
2022-11-07T00:46:11.747Z,94.44
2022-11-07T00:49:14.234Z,93.70
2022-11-07T00:52:16.752Z,92.62
2022-11-07T00:55:19.228Z,93.27
2022-11-07T00:58:21.703Z,93.81
2022-11-07T01:01:27.380Z,93.52
2022-11-07T01:04:47.478Z,93.66
2022-11-07T01:07:49.961Z,93.87
2022-11-07T01:10:52.588Z,93.77
2022-11-07T01:13:56.393Z,94.74
2022-11-07T01:17:00.225Z,94.15
2022-11-07T01:20:02.741Z,94.61
2022-11-07T01:23:05.493Z,94.03
2022-11-07T01:26:10.741Z,94.72
2022-11-07T01:29:13.545Z,94.61
2022-11-07T01:32:17.494Z,94.50
2022-11-07T01:35:19.982Z,95.05
2022-11-07T01:38:22.575Z,93.73
2022-11-07T01:41:28.197Z,94.46
2022-11-07T01:44:52.465Z,94.69
2022-11-07T01:47:59.632Z,95.25
2022-11-07T01:51:02.379Z,94.60
2022-11-07T01:54:05.874Z,93.97
2022-11-07T01:57:14.007Z,94.40
2022-11-07T02:00:20.302Z,94.05
2022-11-07T02:03:24.337Z,94.96
2022-11-07T02:06:36.214Z,94.44
2022-11-07T02:09:38.750Z,93.70
2022-11-07T02:12:41.639Z,94.54
2022-11-07T02:15:44.244Z,94.70
2022-11-07T02:18:48.400Z,94.66
2022-11-07T02:21:59.432Z,95.27
2022-11-07T02:25:05.876Z,94.36
2022-11-07T02:28:11.136Z,94.84
2022-11-07T02:31:13.632Z,93.68
2022-11-07T02:34:16.141Z,93.84
2022-11-07T02:37:24.761Z,94.11
2022-11-07T02:40:31.415Z,94.89
2022-11-07T02:43:36.095Z,95.04
2022-11-07T02:46:39.033Z,94.97
2022-11-07T02:49:41.541Z,95.23
2022-11-07T02:52:44.341Z,95.07
2022-11-07T02:55:48.171Z,94.86
2022-11-07T02:58:52.407Z,94.84
2022-11-07T03:01:55.119Z,95.21
2022-11-07T03:04:58.497Z,95.61
2022-11-07T03:08:01.002Z,94.21
2022-11-07T03:11:05.869Z,94.86
2022-11-07T03:14:08.381Z,95.24
2022-11-07T03:17:11.098Z,94.74
2022-11-07T03:20:13.740Z,94.80
2022-11-07T03:23:16.847Z,95.96
2022-11-07T03:26:21.472Z,94.69
2022-11-07T03:29:23.950Z,94.88
2022-11-07T03:32:26.614Z,94.65
2022-11-07T03:35:29.127Z,94.93
2022-11-07T03:38:31.637Z,95.00
2022-11-07T03:41:35.459Z,95.63
2022-11-07T03:44:37.970Z,94.91
2022-11-07T03:47:42.596Z,95.58
2022-11-07T03:50:45.083Z,96.36
2022-11-07T03:53:47.569Z,96.01
2022-11-07T03:56:51.407Z,95.75
2022-11-07T03:59:53.909Z,95.14
2022-11-07T04:02:56.472Z,95.73
2022-11-07T04:05:59.688Z,95.53
2022-11-07T04:09:02.172Z,96.25
2022-11-07T04:12:32.655Z,95.65
2022-11-07T04:15:52.868Z,95.33
2022-11-07T04:18:55.491Z,96.80
2022-11-07T04:21:57.987Z,96.21
2022-11-07T04:25:00.524Z,95.27
2022-11-07T04:28:03.828Z,95.95
2022-11-07T04:31:06.593Z,96.78
2022-11-07T04:34:09.070Z,96.63
2022-11-07T04:37:11.590Z,97.36
2022-11-07T04:40:14.844Z,95.67
2022-11-07T04:43:18.651Z,95.93
2022-11-07T04:46:23.097Z,97.25
2022-11-07T04:49:25.617Z,96.97
2022-11-07T04:52:28.108Z,96.90
2022-11-07T04:55:31.493Z,96.89
2022-11-07T04:58:35.657Z,97.02
2022-11-07T05:01:38.228Z,97.14
2022-11-07T05:04:41.158Z,97.29
2022-11-07T05:07:44.311Z,97.69
2022-11-07T05:10:46.862Z,97.60
2022-11-07T05:13:50.705Z,97.60
2022-11-07T05:16:55.508Z,98.46
2022-11-07T05:19:57.988Z,99.55
2022-11-07T05:23:17.634Z,98.64
2022-11-07T05:26:20.537Z,98.76
2022-11-07T05:29:24.350Z,98.81
2022-11-07T05:32:26.854Z,99.50
2022-11-07T05:35:29.348Z,99.92
2022-11-07T05:38:31.823Z,100.00
2022-11-07T05:41:36.848Z,99.79
2022-11-07T05:44:40.672Z,99.64
2022-11-07T05:47:43.209Z,99.68
2022-11-07T05:50:45.696Z,100.00
2022-11-07T05:53:48.217Z,100.00
2022-11-07T05:56:50.704Z,100.00
2022-11-07T05:59:54.522Z,99.63
2022-11-07T06:03:00.362Z,100.00
2022-11-07T06:06:02.990Z,100.00
2022-11-07T06:09:05.724Z,100.00
2022-11-07T06:12:08.510Z,100.00
2022-11-07T06:15:12.715Z,100.00
2022-11-07T06:18:16.941Z,100.00
2022-11-07T06:21:19.440Z,100.00
2022-11-07T06:24:21.925Z,100.00
2022-11-07T06:27:24.445Z,100.00
2022-11-07T06:30:28.668Z,100.00
2022-11-07T06:33:31.317Z,100.00
2022-11-07T06:36:33.813Z,100.00
2022-11-07T06:39:36.301Z,99.57
2022-11-07T06:42:39.216Z,100.00
2022-11-07T06:45:44.233Z,100.00
2022-11-07T06:48:46.952Z,100.00
2022-11-07T06:51:49.461Z,100.00
2022-11-07T06:54:51.943Z,100.00
2022-11-07T06:57:58.816Z,100.00
2022-11-07T07:01:04.201Z,100.00
2022-11-07T07:04:06.816Z,100.00
2022-11-07T07:07:09.327Z,100.00
2022-11-07T07:10:11.847Z,100.00
2022-11-07T07:13:15.293Z,100.00
2022-11-07T07:16:19.242Z,100.00
2022-11-07T07:19:21.727Z,100.00
2022-11-07T07:22:24.222Z,100.00
2022-11-07T07:25:27.320Z,100.00
2022-11-07T07:28:29.890Z,100.00
2022-11-07T07:31:33.735Z,100.00
2022-11-07T07:34:36.262Z,100.00
2022-11-07T07:37:38.765Z,100.00
2022-11-07T07:40:41.507Z,100.00
2022-11-07T07:43:44.553Z,100.00
2022-11-07T07:46:48.419Z,100.00
2022-11-07T07:49:50.907Z,100.00
2022-11-07T07:52:57.162Z,100.00
2022-11-07T07:56:02.626Z,100.00
2022-11-07T07:59:05.155Z,100.00
2022-11-07T08:02:11.367Z,100.00
2022-11-07T08:05:15.302Z,100.00
2022-11-07T08:08:17.784Z,99.58
2022-11-07T08:11:20.288Z,100.00
2022-11-07T08:14:22.801Z,99.43
2022-11-07T08:17:26.647Z,100.00
2022-11-07T08:20:29.443Z,99.57
2022-11-07T08:23:32.398Z,98.96
2022-11-07T08:26:35.212Z,98.18
2022-11-07T08:29:37.696Z,98.90
2022-11-07T08:32:41.504Z,98.55
2022-11-07T08:35:43.969Z,98.53
2022-11-07T08:38:46.454Z,97.61
2022-11-07T08:41:48.927Z,98.27
2022-11-07T08:44:51.417Z,97.62
2022-11-07T08:47:58.893Z,97.63
2022-11-07T08:51:02.918Z,97.35
2022-11-07T08:54:05.643Z,97.13
2022-11-07T08:57:08.136Z,97.75
2022-11-07T09:00:12.047Z,98.51
2022-11-07T09:03:45.095Z,98.70
2022-11-07T09:06:38.381Z,97.43
2022-11-07T09:09:40.907Z,96.41
2022-11-07T09:12:47.131Z,98.07
2022-11-07T09:15:51.789Z,96.44
2022-11-07T09:18:56.366Z,96.36
2022-11-07T09:21:58.906Z,96.00
2022-11-07T09:25:01.400Z,94.01
2022-11-07T09:28:04.224Z,94.80
2022-11-07T09:31:07.125Z,94.29
2022-11-07T09:34:10.970Z,94.43
2022-11-07T09:37:13.566Z,93.48
2022-11-07T09:40:25.214Z,95.87
2022-11-07T09:43:48.153Z,93.99
2022-11-07T09:47:04.801Z,94.18
2022-11-07T09:50:15.059Z,91.49
2022-11-07T09:53:23.273Z,90.36
2022-11-07T09:56:27.770Z,89.98
2022-11-07T09:59:37.169Z,89.41
2022-11-07T10:02:44.166Z,89.90
2022-11-07T10:05:55.747Z,89.86
2022-11-07T10:09:11.945Z,90.70
2022-11-07T10:12:25.088Z,91.12
2022-11-07T10:15:34.564Z,91.48
2022-11-07T10:18:51.369Z,91.68
2022-11-07T10:22:12.555Z,93.65
2022-11-07T10:25:21.247Z,92.69
2022-11-07T10:28:26.788Z,93.28
2022-11-07T10:31:34.968Z,92.64
2022-11-07T10:34:42.596Z,92.66
2022-11-07T10:37:54.686Z,92.63
2022-11-07T10:40:57.561Z,92.34
2022-11-07T10:44:04.219Z,92.37
2022-11-07T10:47:16.530Z,92.58
2022-11-07T10:50:20.997Z,92.50
2022-11-07T10:53:26.455Z,91.78
2022-11-07T10:56:29.085Z,93.57
2022-11-07T10:59:36.370Z,91.28
2022-11-07T11:02:48.424Z,91.46
2022-11-07T11:05:51.327Z,91.16
2022-11-07T11:08:55.689Z,90.81
2022-11-07T11:11:58.296Z,91.74
2022-11-07T11:15:06.495Z,91.14
2022-11-07T11:18:19.151Z,89.52
2022-11-07T11:21:22.062Z,90.86
2022-11-07T11:24:35.651Z,90.04
2022-11-07T11:27:39.600Z,89.30
2022-11-07T11:30:43.024Z,89.76
2022-11-07T11:33:50.236Z,89.17
2022-11-07T11:36:58.593Z,89.97
2022-11-07T11:40:10.165Z,89.40
2022-11-07T11:43:21.082Z,90.25
2022-11-07T11:46:28.607Z,91.45
2022-11-07T11:49:36.443Z,91.38
2022-11-07T11:52:39.380Z,92.17
2022-11-07T11:55:52.323Z,91.98
2022-11-07T11:59:09.438Z,92.33
2022-11-07T12:02:34.367Z,90.64
2022-11-07T12:06:07.441Z,91.93
2022-11-07T12:09:32.981Z,91.81
2022-11-07T12:12:57.559Z,91.95
2022-11-07T12:16:09.607Z,91.04
2022-11-07T12:19:24.695Z,92.16
2022-11-07T12:22:39.830Z,91.44
2022-11-07T12:25:45.648Z,90.63
2022-11-07T12:28:56.085Z,91.77
2022-11-07T12:32:14.436Z,91.08
2022-11-07T12:35:30.053Z,91.90
2022-11-07T12:39:01.237Z,92.04
2022-11-07T12:42:08.966Z,92.46
2022-11-07T12:45:23.101Z,92.72
2022-11-07T12:48:54.253Z,92.07
2022-11-07T12:52:03.675Z,93.15
2022-11-07T12:55:21.560Z,92.83
2022-11-07T12:58:29.103Z,91.89
2022-11-07T13:01:40.679Z,92.10
2022-11-07T13:04:50.009Z,93.13
2022-11-07T13:07:59.724Z,92.00
2022-11-07T13:11:08.142Z,92.27
2022-11-07T13:14:24.249Z,93.52
2022-11-07T13:17:40.402Z,93.04
2022-11-07T13:20:42.886Z,93.65
2022-11-07T13:23:46.321Z,93.20
2022-11-07T13:26:48.981Z,92.92
2022-11-07T13:29:51.973Z,92.80
2022-11-07T13:32:55.819Z,91.56
2022-11-07T13:36:00.319Z,92.86
2022-11-07T13:39:07.689Z,92.84
2022-11-07T13:42:16.915Z,92.45
2022-11-07T13:45:27.176Z,92.14
2022-11-07T13:48:36.599Z,92.32
2022-11-07T13:51:43.470Z,93.31
2022-11-07T13:54:53.270Z,92.86
2022-11-07T13:57:58.726Z,93.61
2022-11-07T14:01:09.847Z,96.08
2022-11-07T14:04:16.950Z,98.27
2022-11-07T14:07:24.844Z,99.48
2022-11-07T14:10:32.889Z,99.92
2022-11-07T14:13:41.251Z,100.00
2022-11-07T14:16:46.865Z,100.00
2022-11-07T14:19:50.702Z,100.00
2022-11-07T14:22:55.834Z,100.00
2022-11-07T14:26:00.672Z,100.00
2022-11-07T14:29:04.020Z,100.00
2022-11-07T14:32:08.268Z,100.00
2022-11-07T14:35:12.101Z,100.00
2022-11-07T14:38:20.201Z,100.00
2022-11-07T14:41:24.096Z,100.00
2022-11-07T14:44:47.547Z,100.00
2022-11-07T14:47:54.715Z,100.00
2022-11-07T14:51:00.675Z,100.00
2022-11-07T14:54:07.814Z,100.00
2022-11-07T14:57:12.647Z,100.00
2022-11-07T15:00:17.611Z,100.00
2022-11-07T15:03:22.607Z,100.00
2022-11-07T15:06:33.167Z,100.00
2022-11-07T15:09:35.692Z,100.00
2022-11-07T15:12:50.760Z,100.00
2022-11-07T15:16:01.851Z,100.00
2022-11-07T15:19:07.043Z,100.00
2022-11-07T15:22:29.255Z,100.00
2022-11-07T15:25:35.821Z,100.00
2022-11-07T15:28:46.454Z,100.00
2022-11-07T15:31:49.891Z,100.00
2022-11-07T15:35:17.024Z,100.00
2022-11-07T15:38:21.419Z,100.00
2022-11-07T15:41:23.928Z,100.00
2022-11-07T15:44:26.461Z,100.00
2022-11-07T15:47:30.293Z,100.00
2022-11-07T15:50:44.441Z,100.00
2022-11-07T15:53:48.269Z,100.00
2022-11-07T15:56:54.540Z,100.00
2022-11-07T16:00:02.045Z,100.00
2022-11-07T16:03:04.852Z,100.00
2022-11-07T16:06:16.724Z,100.00
2022-11-07T16:09:22.492Z,100.00
2022-11-07T16:12:24.997Z,100.00
2022-11-07T16:15:28.452Z,100.00
2022-11-07T16:18:42.823Z,100.00
2022-11-07T16:21:46.627Z,100.00
2022-11-07T16:24:50.455Z,100.00
2022-11-07T16:27:55.729Z,100.00
2022-11-07T16:30:58.667Z,100.00
2022-11-07T16:34:01.606Z,100.00
2022-11-07T16:37:04.113Z,100.00
2022-11-07T16:40:13.190Z,100.00
2022-11-07T16:43:16.026Z,100.00
2022-11-07T16:46:21.200Z,100.00
2022-11-07T16:49:27.258Z,100.00
2022-11-07T16:52:29.772Z,100.00
2022-11-07T16:55:33.640Z,100.00
2022-11-07T16:58:36.486Z,100.00
2022-11-07T17:01:39.076Z,100.00
2022-11-07T17:04:41.643Z,100.00
2022-11-07T17:07:44.136Z,100.00
2022-11-07T17:10:48.378Z,100.00
2022-11-07T17:13:50.877Z,100.00
2022-11-07T17:16:53.405Z,100.00
2022-11-07T17:19:55.889Z,100.00
2022-11-07T17:22:58.500Z,100.00
2022-11-07T17:26:02.595Z,100.00
2022-11-07T17:29:06.634Z,100.00
2022-11-07T17:32:09.125Z,100.00
2022-11-07T17:35:31.258Z,100.00
2022-11-07T17:38:34.484Z,100.00
2022-11-07T17:41:39.304Z,100.00
2022-11-07T17:44:42.045Z,100.00
2022-11-07T17:47:44.560Z,100.00
2022-11-07T17:50:47.821Z,100.00
2022-11-07T17:53:50.646Z,100.00
2022-11-07T17:56:54.461Z,100.00
2022-11-07T17:59:56.950Z,100.00
2022-11-07T18:02:59.451Z,100.00
2022-11-07T18:06:02.146Z,100.00
2022-11-07T18:09:06.198Z,100.00
2022-11-07T18:12:11.433Z,100.00
2022-11-07T18:15:13.994Z,100.00
2022-11-07T18:18:16.775Z,100.00
2022-11-07T18:21:19.959Z,100.00
2022-11-07T18:24:22.657Z,100.00
2022-11-07T18:27:26.523Z,100.00
2022-11-07T18:30:29.056Z,100.00
2022-11-07T18:33:31.678Z,100.00
2022-11-07T18:36:36.922Z,100.00
2022-11-07T18:39:39.728Z,100.00
2022-11-07T18:42:46.899Z,100.00
2022-11-07T18:45:49.638Z,100.00
2022-11-07T18:48:52.280Z,100.00
2022-11-07T18:51:54.950Z,100.00
2022-11-07T18:54:57.466Z,100.00
2022-11-07T18:58:01.393Z,100.00
2022-11-07T19:01:06.696Z,100.00
2022-11-07T19:04:11.364Z,100.00
2022-11-07T19:07:13.921Z,100.00
2022-11-07T19:10:17.983Z,100.00
2022-11-07T19:13:21.989Z,100.00
2022-11-07T19:16:25.090Z,100.00
2022-11-07T19:19:27.677Z,100.00
2022-11-07T19:22:31.410Z,100.00
2022-11-07T19:25:34.020Z,100.00
2022-11-07T19:28:38.387Z,100.00
2022-11-07T19:31:40.885Z,100.00
2022-11-07T19:34:43.405Z,100.00
2022-11-07T19:37:45.924Z,100.00
2022-11-07T19:40:49.748Z,100.00
2022-11-07T19:43:53.681Z,100.00
2022-11-07T19:46:56.193Z,100.00
2022-11-07T19:49:58.828Z,100.00
2022-11-07T19:53:01.339Z,100.00
2022-11-07T19:56:08.555Z,100.00
2022-11-07T19:59:12.442Z,100.00
2022-11-07T20:02:32.303Z,100.00
2022-11-07T20:05:38.504Z,100.00
2022-11-07T20:08:41.170Z,100.00
2022-11-07T20:11:43.768Z,100.00
2022-11-07T20:14:47.744Z,100.00
2022-11-07T20:17:50.324Z,100.00
2022-11-07T20:21:00.971Z,100.00
2022-11-07T20:24:05.356Z,100.00
2022-11-07T20:27:11.542Z,100.00
2022-11-07T20:30:15.693Z,100.00
2022-11-07T20:33:18.590Z,100.00
2022-11-07T20:36:21.934Z,100.00
2022-11-07T20:39:24.448Z,100.00
2022-11-07T20:42:26.949Z,100.00
2022-11-07T20:45:30.805Z,100.00
2022-11-07T20:48:34.032Z,100.00
2022-11-07T20:51:36.539Z,100.00
2022-11-07T20:54:39.035Z,100.00
2022-11-07T20:57:42.593Z,100.00
2022-11-07T21:00:47.163Z,100.00
2022-11-07T21:03:50.584Z,100.00
2022-11-07T21:06:53.136Z,100.00
2022-11-07T21:09:55.664Z,100.00
2022-11-07T21:12:58.302Z,100.00
2022-11-07T21:16:02.706Z,100.00
2022-11-07T21:19:05.832Z,100.00
2022-11-07T21:22:08.519Z,100.00
2022-11-07T21:25:11.411Z,100.00
2022-11-07T21:28:17.229Z,100.00
2022-11-07T21:31:24.203Z,100.00
2022-11-07T21:34:26.700Z,100.00
2022-11-07T21:37:29.445Z,100.00
2022-11-07T21:40:32.374Z,100.00
2022-11-07T21:43:34.885Z,100.00
2022-11-07T21:46:38.807Z,100.00
2022-11-07T21:49:41.307Z,100.00
2022-11-07T21:52:43.836Z,100.00
2022-11-07T21:55:46.325Z,100.00
2022-11-07T21:58:49.334Z,100.00
2022-11-07T22:01:55.118Z,100.00
2022-11-07T22:04:57.741Z,100.00
2022-11-07T22:08:00.229Z,100.00
2022-11-07T22:11:02.837Z,100.00
2022-11-07T22:14:05.854Z,100.00
2022-11-07T22:17:09.922Z,100.00
2022-11-07T22:20:13.417Z,100.00
2022-11-07T22:23:16.227Z,100.00
2022-11-07T22:26:21.066Z,100.00
2022-11-07T22:29:24.303Z,100.00
2022-11-07T22:32:28.131Z,100.00
2022-11-07T22:35:30.625Z,100.00
2022-11-07T22:38:34.038Z,100.00
2022-11-07T22:41:36.678Z,100.00
2022-11-07T22:44:39.171Z,100.00
2022-11-07T22:47:43.046Z,100.00
2022-11-07T22:50:45.944Z,100.00
2022-11-07T22:53:48.711Z,100.00
2022-11-07T22:56:51.229Z,100.00
2022-11-07T22:59:53.729Z,100.00
2022-11-07T23:02:58.589Z,100.00
2022-11-07T23:06:04.011Z,100.00
2022-11-07T23:09:06.628Z,100.00
2022-11-07T23:12:09.124Z,100.00
2022-11-07T23:15:11.922Z,100.00
2022-11-07T23:18:16.224Z,100.00
2022-11-07T23:21:20.394Z,100.00
2022-11-07T23:24:23.632Z,100.00
2022-11-07T23:27:26.131Z,100.00
2022-11-07T23:30:30.228Z,100.00
2022-11-07T23:33:36.607Z,100.00
2022-11-07T23:36:40.725Z,100.00
2022-11-07T23:39:43.640Z,100.00
2022-11-07T23:42:46.115Z,100.00
2022-11-07T23:46:06.276Z,100.00
2022-11-07T23:49:28.273Z,100.00
2022-11-07T23:52:30.766Z,100.00
2022-11-07T23:55:40.770Z,100.00
2022-11-07T23:59:00.756Z,100.00
